createdAt,value
2019-05-20T00:03:41.375Z,14.70
2019-05-20T00:08:44.557Z,14.70
2019-05-20T00:13:47.246Z,14.70
2019-05-20T00:18:49.957Z,14.60
2019-05-20T00:23:52.707Z,14.50
2019-05-20T00:28:55.385Z,14.60
2019-05-20T00:33:58.044Z,14.50
2019-05-20T00:39:00.782Z,14.50
2019-05-20T00:44:03.585Z,14.50
2019-05-20T00:49:06.318Z,14.50
2019-05-20T00:54:09.060Z,14.40
2019-05-20T00:59:11.796Z,14.40
2019-05-20T01:04:14.471Z,14.40
2019-05-20T01:09:17.217Z,14.50
2019-05-20T01:14:20.026Z,14.40
2019-05-20T01:19:22.758Z,14.30
2019-05-20T01:24:25.555Z,14.30
2019-05-20T01:29:28.299Z,14.50
2019-05-20T01:34:31.052Z,14.50
2019-05-20T01:39:33.812Z,14.40
2019-05-20T01:44:36.518Z,14.30
2019-05-20T01:49:39.182Z,14.20
2019-05-20T01:54:41.933Z,14.40
2019-05-20T01:59:44.610Z,14.40
2019-05-20T02:04:47.257Z,14.30
2019-05-20T02:09:49.925Z,14.30
2019-05-20T02:14:52.992Z,14.30
2019-05-20T02:19:56.097Z,14.20
2019-05-20T02:24:58.761Z,14.20
2019-05-20T02:30:01.438Z,14.30
2019-05-20T02:35:05.912Z,14.30
2019-05-20T02:40:09.385Z,14.30
2019-05-20T02:45:12.489Z,14.30
2019-05-20T02:50:15.294Z,14.20
2019-05-20T02:55:18.088Z,14.10
2019-05-20T03:00:20.745Z,14.00
2019-05-20T03:05:23.748Z,14.00
2019-05-20T03:10:26.422Z,14.00
2019-05-20T03:15:29.092Z,14.00
2019-05-20T03:20:31.827Z,13.90
2019-05-20T03:25:34.583Z,13.80
2019-05-20T03:30:37.260Z,13.80
2019-05-20T03:35:40.022Z,13.80
2019-05-20T03:40:42.752Z,13.80
2019-05-20T03:45:45.487Z,13.90
2019-05-20T03:50:48.246Z,13.70
2019-05-20T03:55:50.891Z,13.70
2019-05-20T04:00:53.569Z,13.80
2019-05-20T04:05:56.304Z,13.90
2019-05-20T04:10:59.033Z,13.90
2019-05-20T04:16:01.720Z,13.90
2019-05-20T04:21:04.577Z,13.90
2019-05-20T04:26:07.383Z,13.90
2019-05-20T04:31:10.197Z,13.80
2019-05-20T04:36:12.959Z,13.80
2019-05-20T04:41:15.639Z,13.80
2019-05-20T04:46:18.414Z,13.80
2019-05-20T04:51:21.146Z,13.80
2019-05-20T04:56:23.819Z,13.80
2019-05-20T05:01:26.475Z,13.80
2019-05-20T05:06:29.139Z,13.80
2019-05-20T05:11:31.972Z,13.70
2019-05-20T05:16:34.993Z,13.60
2019-05-20T05:21:37.736Z,13.70
2019-05-20T05:26:40.486Z,13.70
2019-05-20T05:31:43.149Z,13.60
2019-05-20T05:36:45.878Z,13.50
2019-05-20T05:41:48.661Z,13.60
2019-05-20T05:46:51.357Z,13.70
2019-05-20T05:51:54.023Z,13.60
2019-05-20T05:56:56.760Z,13.60
2019-05-20T06:01:59.502Z,13.60
2019-05-20T06:07:02.223Z,13.60
2019-05-20T06:12:04.921Z,13.70
2019-05-20T06:17:07.661Z,13.80
2019-05-20T06:22:10.403Z,13.90
2019-05-20T06:27:33.922Z,13.80
2019-05-20T06:32:36.599Z,13.80
2019-05-20T06:37:39.593Z,13.80
2019-05-20T06:42:42.327Z,13.90
2019-05-20T06:47:45.012Z,13.90
2019-05-20T06:52:47.750Z,13.90
2019-05-20T06:57:50.489Z,13.90
2019-05-20T07:02:53.154Z,13.90
2019-05-20T07:07:55.899Z,13.90
2019-05-20T07:12:58.639Z,13.90
2019-05-20T07:18:01.381Z,13.90
2019-05-20T07:23:04.124Z,13.80
2019-05-20T07:28:06.864Z,13.70
2019-05-20T07:33:09.546Z,13.80
2019-05-20T07:38:12.205Z,13.90
2019-05-20T07:43:14.877Z,13.90
2019-05-20T07:48:18.106Z,13.90
2019-05-20T07:53:21.783Z,13.90
2019-05-20T07:58:26.949Z,14.00
2019-05-20T08:03:29.782Z,14.00
2019-05-20T08:08:32.519Z,14.10
2019-05-20T08:13:35.308Z,14.20
2019-05-20T08:18:40.044Z,14.30
2019-05-20T08:23:42.780Z,14.30
2019-05-20T08:28:45.524Z,14.40
2019-05-20T08:33:48.183Z,14.40
2019-05-20T08:38:50.919Z,14.40
2019-05-20T08:43:53.593Z,14.50
2019-05-20T08:48:56.331Z,14.70
2019-05-20T08:53:59.140Z,14.60
2019-05-20T08:59:01.797Z,14.70
2019-05-20T09:04:04.485Z,14.70
2019-05-20T09:09:07.359Z,14.70
2019-05-20T09:14:10.103Z,14.80
2019-05-20T09:19:12.854Z,14.90
2019-05-20T09:24:18.836Z,14.90
2019-05-20T09:29:19.967Z,15.00
2019-05-20T09:34:23.156Z,15.10
2019-05-20T09:39:25.906Z,15.20
2019-05-20T09:44:28.580Z,15.30
2019-05-20T09:49:31.407Z,15.30
2019-05-20T09:54:34.133Z,15.30
2019-05-20T09:59:43.459Z,15.30
2019-05-20T10:04:41.181Z,15.20
2019-05-20T10:09:46.975Z,15.30
2019-05-20T10:14:52.793Z,15.40
2019-05-20T10:19:54.453Z,15.40
2019-05-20T10:24:57.193Z,15.50
2019-05-20T10:30:00.316Z,15.50
2019-05-20T10:35:04.938Z,15.60
2019-05-20T10:40:08.234Z,15.50
2019-05-20T10:45:11.052Z,15.60
2019-05-20T10:50:14.148Z,15.70
2019-05-20T10:55:17.488Z,15.70
2019-05-20T11:00:20.705Z,15.60
2019-05-20T11:05:23.434Z,15.70
2019-05-20T11:10:26.122Z,15.90
2019-05-20T11:15:28.851Z,15.80
2019-05-20T11:20:31.597Z,15.70
2019-05-20T11:25:34.769Z,15.40
2019-05-20T11:30:37.509Z,15.20
2019-05-20T11:35:40.256Z,15.40
2019-05-20T11:40:42.922Z,15.50
2019-05-20T11:45:45.721Z,15.60
2019-05-20T11:50:48.472Z,15.50
2019-05-20T11:55:51.139Z,15.50
2019-05-20T12:00:53.817Z,15.40
2019-05-20T12:05:56.503Z,15.40
2019-05-20T12:10:59.225Z,15.30
2019-05-20T12:16:01.972Z,15.40
2019-05-20T12:21:04.650Z,15.40
2019-05-20T12:26:09.032Z,15.50
2019-05-20T12:31:14.590Z,15.30
2019-05-20T12:36:17.267Z,15.30
2019-05-20T12:41:20.026Z,15.40
2019-05-20T12:46:22.831Z,15.30
2019-05-20T12:51:25.570Z,15.30
2019-05-20T12:56:28.222Z,15.30
2019-05-20T13:01:30.891Z,15.40
2019-05-20T13:06:33.640Z,15.50
2019-05-20T13:11:36.383Z,15.40
2019-05-20T13:16:39.109Z,15.40
2019-05-20T13:21:41.785Z,15.40
2019-05-20T13:26:44.869Z,15.40
2019-05-20T13:31:47.602Z,15.40
2019-05-20T13:36:50.387Z,15.40
2019-05-20T13:41:53.087Z,15.40
2019-05-20T13:46:55.922Z,15.60
2019-05-20T13:51:58.669Z,15.60
2019-05-20T13:57:01.402Z,15.60
2019-05-20T14:02:04.218Z,15.60
2019-05-20T14:07:06.974Z,15.70
2019-05-20T14:12:09.721Z,15.60
2019-05-20T14:17:12.459Z,15.40
2019-05-20T14:22:15.124Z,15.30
2019-05-20T14:27:38.735Z,15.40
2019-05-20T14:32:41.433Z,15.30
2019-05-20T14:37:44.167Z,15.40
2019-05-20T14:42:46.840Z,15.40
2019-05-20T14:47:49.585Z,15.20
2019-05-20T14:52:52.287Z,15.40
2019-05-20T14:57:55.025Z,15.60
2019-05-20T15:02:57.681Z,15.70
2019-05-20T15:08:00.499Z,15.70
2019-05-20T15:13:03.449Z,15.50
2019-05-20T15:18:06.203Z,15.50
2019-05-20T15:23:08.951Z,15.40
2019-05-20T15:28:11.622Z,15.30
2019-05-20T15:33:14.289Z,15.20
2019-05-20T15:38:17.100Z,15.30
2019-05-20T15:43:19.851Z,15.30
2019-05-20T15:48:22.568Z,15.30
2019-05-20T15:53:25.290Z,15.40
2019-05-20T15:58:27.949Z,15.40
2019-05-20T16:03:30.610Z,15.40
2019-05-20T16:08:33.343Z,15.40
2019-05-20T16:13:35.996Z,15.30
2019-05-20T16:18:39.089Z,15.20
2019-05-20T16:23:41.772Z,15.20
2019-05-20T16:28:44.486Z,15.10
2019-05-20T16:33:47.172Z,15.10
2019-05-20T16:38:49.922Z,15.10
2019-05-20T16:43:52.678Z,14.80
2019-05-20T16:48:55.367Z,14.80
2019-05-20T16:53:58.090Z,14.80
2019-05-20T16:59:00.753Z,14.70
2019-05-20T17:04:03.486Z,14.70
2019-05-20T17:09:06.761Z,14.60
2019-05-20T17:14:10.721Z,14.60
2019-05-20T17:19:13.798Z,14.60
2019-05-20T17:24:16.513Z,14.60
2019-05-20T17:29:19.250Z,14.70
2019-05-20T17:34:22.490Z,14.60
2019-05-20T17:39:25.358Z,14.50
2019-05-20T17:44:31.140Z,14.60
2019-05-20T17:49:33.948Z,14.60
2019-05-20T17:54:36.695Z,14.50
2019-05-20T17:59:39.437Z,14.40
2019-05-20T18:04:42.175Z,14.30
2019-05-20T18:09:44.996Z,14.30
2019-05-20T18:14:47.732Z,14.30
2019-05-20T18:19:50.459Z,14.10
2019-05-20T18:25:14.004Z,14.10
2019-05-20T18:30:17.108Z,14.10
2019-05-20T18:35:19.837Z,14.10
2019-05-20T18:40:22.579Z,14.00
2019-05-20T18:45:25.589Z,14.00
2019-05-20T18:50:28.483Z,14.00
2019-05-20T18:55:34.613Z,14.00
2019-05-20T19:00:35.626Z,14.00
2019-05-20T19:05:39.166Z,14.00
2019-05-20T19:10:41.901Z,13.90
2019-05-20T19:15:44.598Z,13.90
2019-05-20T19:20:47.343Z,13.80
2019-05-20T19:25:50.017Z,13.90
2019-05-20T19:30:52.833Z,13.90
2019-05-20T19:35:55.647Z,13.80
2019-05-20T19:40:58.323Z,13.80
2019-05-20T19:46:00.992Z,13.80
2019-05-20T19:51:03.996Z,13.70
2019-05-20T19:56:06.733Z,13.70
2019-05-20T20:01:09.422Z,13.80
2019-05-20T20:06:13.573Z,13.80
2019-05-20T20:11:16.245Z,13.80
2019-05-20T20:16:18.993Z,13.80
2019-05-20T20:21:21.725Z,13.80
2019-05-20T20:26:24.824Z,13.70
2019-05-20T20:31:27.557Z,13.70
2019-05-20T20:36:30.291Z,13.70
2019-05-20T20:41:32.972Z,13.70
2019-05-20T20:46:35.659Z,13.70
2019-05-20T20:51:38.333Z,13.70
2019-05-20T20:56:41.068Z,13.70
2019-05-20T21:01:43.738Z,13.60
2019-05-20T21:06:46.474Z,13.60
2019-05-20T21:11:49.227Z,13.50
2019-05-20T21:16:51.965Z,13.50
2019-05-20T21:21:54.642Z,13.40
2019-05-20T21:26:57.320Z,13.30
2019-05-20T21:31:59.976Z,13.40
2019-05-20T21:37:02.721Z,13.40
2019-05-20T21:42:05.531Z,13.30
2019-05-20T21:47:08.282Z,13.30
2019-05-20T21:52:10.958Z,13.30
2019-05-20T21:57:13.690Z,13.30
2019-05-20T22:02:16.367Z,13.30
2019-05-20T22:07:19.178Z,13.30
2019-05-20T22:12:21.947Z,13.20
2019-05-20T22:17:24.690Z,13.10
2019-05-20T22:22:27.352Z,13.00
2019-05-20T22:27:30.175Z,12.90
2019-05-20T22:32:32.922Z,13.00
2019-05-20T22:37:35.658Z,13.00
2019-05-20T22:42:38.393Z,13.10
2019-05-20T22:47:41.127Z,13.10
2019-05-20T22:52:43.833Z,13.00
2019-05-20T22:57:46.647Z,13.00
2019-05-20T23:02:49.319Z,13.10
2019-05-20T23:07:52.066Z,12.90
2019-05-20T23:12:54.802Z,12.90
2019-05-20T23:17:57.523Z,12.90
2019-05-20T23:23:00.263Z,12.80
2019-05-20T23:28:02.945Z,12.80
2019-05-20T23:33:05.934Z,12.80
2019-05-20T23:38:08.593Z,12.80
2019-05-20T23:43:11.409Z,12.90
2019-05-20T23:48:14.146Z,12.80
2019-05-20T23:53:16.882Z,12.80
2019-05-20T23:58:19.555Z,12.80
